createdAt,value
2022-08-17T00:00:42.746Z,19.93
2022-08-17T00:03:10.952Z,20.02
2022-08-17T00:05:45.320Z,20.04
2022-08-17T00:08:15.024Z,19.99
2022-08-17T00:10:43.437Z,20.07
2022-08-17T00:13:15.934Z,20.13
2022-08-17T00:15:45.424Z,20.23
2022-08-17T00:19:06.808Z,20.29
2022-08-17T00:21:05.226Z,20.36
2022-08-17T00:23:46.223Z,20.51
2022-08-17T00:26:43.529Z,20.54
2022-08-17T00:29:06.052Z,20.64
2022-08-17T00:31:36.737Z,20.60
2022-08-17T00:34:06.279Z,20.65
2022-08-17T00:36:34.236Z,20.74
2022-08-17T00:39:02.232Z,20.83
2022-08-17T00:41:30.987Z,20.83
2022-08-17T00:44:02.845Z,20.77
2022-08-17T00:46:34.869Z,20.74
2022-08-17T00:49:05.897Z,20.79
2022-08-17T00:51:38.659Z,20.84
2022-08-17T00:54:11.095Z,20.83
2022-08-17T00:56:42.847Z,20.91
2022-08-17T00:59:13.398Z,20.94
2022-08-17T01:01:41.888Z,20.99
2022-08-17T01:04:14.091Z,21.05
2022-08-17T01:06:46.983Z,21.05
2022-08-17T01:09:15.712Z,21.03
2022-08-17T01:11:44.302Z,21.05
2022-08-17T01:14:12.409Z,21.01
2022-08-17T01:16:40.750Z,21.06
2022-08-17T01:19:18.275Z,21.05
2022-08-17T01:21:54.305Z,20.99
2022-08-17T01:24:23.933Z,20.96
2022-08-17T01:26:51.861Z,20.90
2022-08-17T01:29:21.481Z,20.92
2022-08-17T01:31:53.893Z,20.95
2022-08-17T01:34:22.321Z,20.93
2022-08-17T01:36:51.186Z,20.87
2022-08-17T01:39:25.393Z,20.87
2022-08-17T01:41:57.415Z,20.85
2022-08-17T01:44:28.309Z,20.90
2022-08-17T01:46:56.287Z,20.92
2022-08-17T01:49:24.428Z,20.84
2022-08-17T01:51:52.449Z,20.78
2022-08-17T01:54:22.154Z,20.80
2022-08-17T01:56:53.085Z,20.85
2022-08-17T01:59:21.962Z,20.86
2022-08-17T02:01:50.502Z,20.79
2022-08-17T02:04:18.605Z,20.76
2022-08-17T02:06:53.661Z,20.76
2022-08-17T02:09:25.481Z,20.73
2022-08-17T02:11:56.619Z,20.72
2022-08-17T02:14:25.440Z,20.66
2022-08-17T02:16:53.854Z,20.77
2022-08-17T02:19:21.982Z,20.83
2022-08-17T02:21:52.028Z,20.85
2022-08-17T02:24:58.428Z,20.80
2022-08-17T02:27:12.580Z,20.71
2022-08-17T02:29:40.504Z,20.79
2022-08-17T02:32:20.663Z,20.85
2022-08-17T02:34:55.967Z,20.67
2022-08-17T02:37:23.873Z,20.76
2022-08-17T02:39:51.863Z,20.82
2022-08-17T02:42:27.793Z,20.90
2022-08-17T02:44:55.784Z,20.87
2022-08-17T02:47:23.823Z,20.68
2022-08-17T02:49:54.426Z,20.69
2022-08-17T02:52:42.646Z,20.74
2022-08-17T02:55:13.919Z,20.52
2022-08-17T02:57:43.602Z,20.57
2022-08-17T03:00:14.992Z,20.47
2022-08-17T03:02:44.849Z,20.42
2022-08-17T03:05:14.394Z,20.36
2022-08-17T03:07:43.141Z,20.22
2022-08-17T03:10:12.847Z,20.10
2022-08-17T03:12:44.325Z,20.00
2022-08-17T03:15:15.614Z,20.05
2022-08-17T03:17:44.135Z,19.90
2022-08-17T03:20:13.722Z,19.97
2022-08-17T03:22:52.992Z,20.00
2022-08-17T03:25:25.049Z,20.00
2022-08-17T03:27:55.054Z,19.85
2022-08-17T03:30:24.247Z,19.97
2022-08-17T03:32:55.240Z,19.89
2022-08-17T03:35:25.543Z,19.73
2022-08-17T03:37:57.009Z,19.82
2022-08-17T03:40:43.786Z,19.75
2022-08-17T03:43:21.037Z,19.70
2022-08-17T03:46:27.607Z,19.56
2022-08-17T03:49:21.954Z,19.39
2022-08-17T03:52:07.543Z,19.39
2022-08-17T03:54:53.001Z,19.37
2022-08-17T03:57:20.930Z,19.36
2022-08-17T03:59:50.305Z,19.33
2022-08-17T04:02:21.182Z,19.26
2022-08-17T04:04:51.015Z,19.31
2022-08-17T04:07:19.461Z,19.31
2022-08-17T04:09:47.521Z,19.28
2022-08-17T04:12:16.446Z,19.26
2022-08-17T04:14:53.208Z,19.27
2022-08-17T04:17:26.387Z,19.19
2022-08-17T04:19:55.345Z,19.22
2022-08-17T04:22:30.558Z,19.19
2022-08-17T04:25:06.633Z,19.01
2022-08-17T04:27:34.580Z,19.04
2022-08-17T04:30:02.740Z,19.08
2022-08-17T04:33:05.147Z,19.23
2022-08-17T04:35:22.748Z,19.11
2022-08-17T04:37:51.253Z,19.08
2022-08-17T04:40:37.892Z,19.04
2022-08-17T04:43:08.758Z,19.02
2022-08-17T04:45:40.785Z,19.02
2022-08-17T04:48:35.237Z,18.99
2022-08-17T04:51:04.810Z,19.04
2022-08-17T04:53:32.766Z,19.12
2022-08-17T04:56:00.716Z,18.97
2022-08-17T04:58:28.665Z,19.08
2022-08-17T05:00:56.687Z,18.99
2022-08-17T05:03:26.155Z,19.04
2022-08-17T05:05:54.451Z,19.06
2022-08-17T05:08:22.784Z,19.15
2022-08-17T05:10:51.201Z,19.10
2022-08-17T05:13:21.488Z,19.13
2022-08-17T05:15:51.574Z,19.13
2022-08-17T05:18:19.548Z,19.14
2022-08-17T05:20:49.025Z,19.23
2022-08-17T05:23:22.549Z,19.23
2022-08-17T05:25:54.703Z,19.01
2022-08-17T05:28:27.451Z,19.07
2022-08-17T05:30:57.278Z,19.12
2022-08-17T05:33:27.158Z,19.19
2022-08-17T05:35:58.563Z,19.24
2022-08-17T05:38:28.899Z,19.31
2022-08-17T05:40:57.365Z,19.28
2022-08-17T05:43:27.950Z,19.41
2022-08-17T05:46:03.701Z,19.53
2022-08-17T05:48:40.046Z,19.63
2022-08-17T05:51:28.968Z,19.83
2022-08-17T05:54:08.558Z,19.90
2022-08-17T05:56:53.294Z,19.92
2022-08-17T05:59:28.085Z,19.76
2022-08-17T06:02:03.992Z,19.64
2022-08-17T06:04:42.949Z,19.60
2022-08-17T06:07:20.839Z,19.60
2022-08-17T06:09:59.906Z,19.58
2022-08-17T06:12:38.435Z,19.55
2022-08-17T06:15:23.823Z,19.54
2022-08-17T06:17:56.541Z,19.53
2022-08-17T06:20:26.528Z,19.52
2022-08-17T06:23:03.857Z,19.56
2022-08-17T06:25:36.177Z,19.56
2022-08-17T06:28:08.906Z,19.63
2022-08-17T06:30:58.642Z,19.69
2022-08-17T06:33:34.395Z,19.82
2022-08-17T06:36:17.583Z,19.96
2022-08-17T06:38:56.321Z,20.10
2022-08-17T06:41:32.549Z,20.18
2022-08-17T06:44:43.563Z,20.16
2022-08-17T06:47:07.522Z,20.28
2022-08-17T06:49:41.841Z,20.27
2022-08-17T06:52:45.520Z,20.15
2022-08-17T06:55:09.498Z,20.03
2022-08-17T06:57:48.801Z,20.09
2022-08-17T07:00:19.656Z,20.14
2022-08-17T07:02:54.404Z,20.13
2022-08-17T07:05:26.673Z,20.07
2022-08-17T07:08:03.374Z,19.82
2022-08-17T07:10:39.072Z,19.85
2022-08-17T07:13:32.229Z,19.98
2022-08-17T07:16:09.041Z,19.82
2022-08-17T07:18:37.521Z,20.06
2022-08-17T07:21:17.530Z,20.02
2022-08-17T07:24:00.798Z,19.96
2022-08-17T07:26:30.423Z,19.64
2022-08-17T07:29:00.749Z,19.95
2022-08-17T07:31:33.723Z,20.09
2022-08-17T07:34:08.751Z,20.01
2022-08-17T07:36:36.816Z,20.06
2022-08-17T07:39:06.197Z,20.35
2022-08-17T07:41:53.298Z,20.40
2022-08-17T07:44:27.645Z,20.46
2022-08-17T07:47:13.388Z,20.51
2022-08-17T07:49:44.735Z,20.09
2022-08-17T07:52:50.573Z,19.84
2022-08-17T07:55:29.466Z,20.12
2022-08-17T07:58:00.754Z,19.94
2022-08-17T08:00:32.020Z,19.68
2022-08-17T08:03:13.662Z,19.77
2022-08-17T08:05:54.532Z,20.41
2022-08-17T08:08:42.407Z,20.72
2022-08-17T08:11:15.388Z,21.05
2022-08-17T08:13:46.114Z,20.74
2022-08-17T08:16:25.545Z,20.72
2022-08-17T08:18:57.243Z,20.99
2022-08-17T08:21:34.775Z,21.19
2022-08-17T08:24:40.598Z,21.70
2022-08-17T08:27:20.838Z,22.17
2022-08-17T08:29:56.336Z,21.89
2022-08-17T08:32:36.913Z,22.41
2022-08-17T08:35:08.965Z,22.10
2022-08-17T08:37:49.560Z,22.15
2022-08-17T08:40:34.658Z,21.77
2022-08-17T08:43:15.329Z,21.55
2022-08-17T08:45:56.727Z,21.71
2022-08-17T08:48:56.174Z,21.86
2022-08-17T08:51:36.164Z,21.60
2022-08-17T08:54:13.621Z,21.73
2022-08-17T08:57:11.855Z,21.44
2022-08-17T08:59:54.130Z,21.20
2022-08-17T09:02:42.062Z,21.09
2022-08-17T09:05:27.061Z,20.90
2022-08-17T09:08:05.105Z,20.89
2022-08-17T09:10:46.951Z,20.63
2022-08-17T09:13:23.173Z,20.65
2022-08-17T09:15:59.230Z,20.62
2022-08-17T09:19:03.606Z,20.51
2022-08-17T09:21:25.167Z,20.27
2022-08-17T09:24:02.486Z,20.51
2022-08-17T09:26:35.513Z,20.61
2022-08-17T09:29:10.022Z,20.61
2022-08-17T09:31:49.194Z,20.58
2022-08-17T09:34:29.555Z,20.50
2022-08-17T09:37:07.913Z,20.47
2022-08-17T09:39:41.008Z,20.52
2022-08-17T09:42:15.503Z,20.49
2022-08-17T09:44:53.137Z,20.51
2022-08-17T09:47:30.598Z,20.58
2022-08-17T09:50:16.390Z,20.87
2022-08-17T09:52:44.980Z,21.22
2022-08-17T09:55:12.967Z,21.38
2022-08-17T09:57:55.320Z,21.37
2022-08-17T10:00:27.890Z,21.30
2022-08-17T10:03:21.820Z,21.34
2022-08-17T10:05:57.811Z,21.31
2022-08-17T10:08:35.124Z,21.28
2022-08-17T10:11:22.471Z,21.27
2022-08-17T10:14:37.735Z,21.25
2022-08-17T10:17:05.151Z,21.32
2022-08-17T10:19:38.997Z,21.36
2022-08-17T10:22:34.710Z,21.36
2022-08-17T10:25:26.154Z,21.69
2022-08-17T10:28:09.021Z,21.92
2022-08-17T10:31:16.620Z,22.14
2022-08-17T10:33:59.173Z,22.91
2022-08-17T10:36:43.244Z,23.79
2022-08-17T10:39:24.438Z,24.49
2022-08-17T10:41:57.421Z,24.35
2022-08-17T10:44:40.908Z,24.00
2022-08-17T10:47:11.798Z,23.98
2022-08-17T10:49:44.320Z,23.90
2022-08-17T10:52:42.284Z,23.87
2022-08-17T10:55:15.432Z,23.96
2022-08-17T10:57:45.903Z,23.86
2022-08-17T11:00:36.706Z,23.87
2022-08-17T11:03:17.638Z,23.70
2022-08-17T11:05:55.646Z,23.23
2022-08-17T11:09:06.495Z,23.09
2022-08-17T11:12:00.398Z,22.47
2022-08-17T11:14:44.065Z,22.72
2022-08-17T11:17:37.629Z,22.69
2022-08-17T11:20:31.350Z,22.49
2022-08-17T11:23:49.208Z,22.83
2022-08-17T11:26:26.413Z,22.92
2022-08-17T11:29:00.449Z,23.20
2022-08-17T11:31:38.593Z,23.66
2022-08-17T11:34:15.236Z,24.02
2022-08-17T11:37:19.537Z,24.51
2022-08-17T11:40:00.920Z,24.11
2022-08-17T11:42:44.814Z,23.65
2022-08-17T11:45:35.040Z,24.25
2022-08-17T11:48:38.846Z,24.48
2022-08-17T11:51:32.096Z,24.79
2022-08-17T11:54:31.614Z,25.06
2022-08-17T11:56:56.784Z,24.58
2022-08-17T12:00:00.669Z,24.53
2022-08-17T12:03:12.341Z,24.12
2022-08-17T12:05:40.557Z,24.87
2022-08-17T12:08:20.241Z,24.99
2022-08-17T12:11:04.830Z,24.65
2022-08-17T12:13:45.765Z,25.40
2022-08-17T12:16:17.759Z,25.85
2022-08-17T12:18:52.227Z,26.17
2022-08-17T12:21:49.166Z,26.02
2022-08-17T12:24:32.895Z,26.07
2022-08-17T12:27:05.334Z,25.96
2022-08-17T12:29:38.477Z,26.50
2022-08-17T12:32:17.770Z,26.69
2022-08-17T12:34:48.499Z,26.82
2022-08-17T12:37:22.326Z,26.64
2022-08-17T12:39:58.747Z,26.89
2022-08-17T12:42:31.615Z,26.85
2022-08-17T12:45:01.049Z,26.24
2022-08-17T12:47:31.934Z,26.90
2022-08-17T12:50:28.749Z,26.72
2022-08-17T12:53:02.033Z,26.53
2022-08-17T12:55:36.532Z,27.18
2022-08-17T12:58:05.048Z,27.54
2022-08-17T13:00:38.127Z,27.94
2022-08-17T13:03:09.742Z,27.65
2022-08-17T13:05:43.878Z,27.52
2022-08-17T13:08:16.373Z,27.24
2022-08-17T13:10:45.351Z,27.15
2022-08-17T13:13:24.772Z,26.83
2022-08-17T13:15:57.296Z,26.66
2022-08-17T13:18:42.304Z,26.60
2022-08-17T13:21:19.282Z,26.48
2022-08-17T13:23:59.737Z,26.36
2022-08-17T13:26:32.736Z,26.19
2022-08-17T13:29:02.343Z,26.20
2022-08-17T13:31:47.480Z,26.43
2022-08-17T13:34:37.525Z,26.09
2022-08-17T13:37:33.685Z,25.84
2022-08-17T13:40:26.472Z,25.90
2022-08-17T13:42:56.605Z,25.93
2022-08-17T13:45:43.477Z,26.03
2022-08-17T13:48:23.670Z,26.05
2022-08-17T13:51:07.348Z,25.90
2022-08-17T13:53:55.160Z,25.64
2022-08-17T13:56:38.746Z,25.89
2022-08-17T13:59:11.381Z,25.87
2022-08-17T14:01:42.160Z,25.79
2022-08-17T14:04:14.189Z,25.75
2022-08-17T14:06:53.287Z,25.75
2022-08-17T14:09:27.750Z,25.62
2022-08-17T14:11:58.042Z,25.57
2022-08-17T14:14:26.690Z,25.54
2022-08-17T14:16:55.355Z,25.50
2022-08-17T14:19:25.804Z,25.47
2022-08-17T14:21:56.559Z,25.34
2022-08-17T14:24:27.256Z,25.18
2022-08-17T14:26:55.193Z,25.22
2022-08-17T14:29:26.009Z,25.16
2022-08-17T14:31:54.699Z,25.06
2022-08-17T14:34:24.912Z,24.82
2022-08-17T14:36:53.417Z,24.66
2022-08-17T14:39:21.861Z,24.57
2022-08-17T14:41:50.395Z,24.53
2022-08-17T14:44:18.334Z,24.65
2022-08-17T14:46:48.025Z,24.61
2022-08-17T14:49:16.232Z,24.53
2022-08-17T14:51:45.686Z,24.33
2022-08-17T14:54:33.105Z,24.26
2022-08-17T14:57:13.231Z,24.34
2022-08-17T14:59:54.784Z,24.36
2022-08-17T15:02:29.718Z,24.31
2022-08-17T15:05:00.751Z,24.11
2022-08-17T15:07:30.986Z,23.83
2022-08-17T15:10:00.908Z,23.49
2022-08-17T15:12:33.206Z,23.48
2022-08-17T15:15:02.114Z,23.60
2022-08-17T15:17:44.644Z,23.43
2022-08-17T15:20:16.204Z,23.42
2022-08-17T15:22:47.150Z,23.22
2022-08-17T15:25:15.260Z,23.03
2022-08-17T15:27:44.141Z,22.79
2022-08-17T15:30:13.741Z,22.46
2022-08-17T15:32:46.875Z,22.32
2022-08-17T15:35:27.395Z,22.26
2022-08-17T15:38:06.168Z,22.16
2022-08-17T15:40:40.038Z,21.96
2022-08-17T15:43:08.700Z,21.77
2022-08-17T15:45:36.755Z,21.62
2022-08-17T15:48:05.879Z,21.40
2022-08-17T15:50:33.857Z,21.38
2022-08-17T15:53:04.935Z,21.20
2022-08-17T15:55:34.021Z,21.20
2022-08-17T15:58:02.405Z,21.04
2022-08-17T16:00:30.794Z,20.89
2022-08-17T16:03:33.712Z,20.68
2022-08-17T16:05:51.340Z,20.50
2022-08-17T16:08:21.658Z,20.36
2022-08-17T16:10:50.541Z,20.24
2022-08-17T16:13:19.123Z,20.27
2022-08-17T16:15:56.622Z,20.57
2022-08-17T16:18:30.997Z,20.85
2022-08-17T16:21:23.633Z,21.05
2022-08-17T16:23:54.470Z,21.27
2022-08-17T16:26:23.260Z,21.46
2022-08-17T16:28:52.540Z,21.64
2022-08-17T16:31:21.267Z,21.78
2022-08-17T16:34:16.134Z,21.55
2022-08-17T16:36:39.761Z,21.53
2022-08-17T16:39:10.696Z,21.60
2022-08-17T16:41:45.237Z,21.55
2022-08-17T16:44:16.673Z,21.45
2022-08-17T16:46:46.305Z,21.44
2022-08-17T16:49:35.425Z,21.57
2022-08-17T16:52:04.354Z,21.53
2022-08-17T16:54:35.517Z,21.56
2022-08-17T16:57:05.370Z,21.58
2022-08-17T16:59:39.618Z,21.64
2022-08-17T17:02:14.865Z,21.57
2022-08-17T17:04:49.385Z,21.47
2022-08-17T17:07:44.483Z,21.02
2022-08-17T17:13:02.303Z,21.23
2022-08-17T17:15:47.784Z,21.03
2022-08-17T17:18:17.720Z,21.01
2022-08-17T17:20:55.757Z,21.08
2022-08-17T17:23:38.239Z,21.02
2022-08-17T17:26:25.254Z,20.92
2022-08-17T17:29:13.068Z,20.79
2022-08-17T17:31:51.119Z,20.56
2022-08-17T17:34:20.729Z,20.43
2022-08-17T17:36:53.181Z,20.36
2022-08-17T17:39:29.421Z,20.31
2022-08-17T17:42:03.475Z,20.23
2022-08-17T17:44:35.210Z,20.11
2022-08-17T17:47:05.056Z,19.84
2022-08-17T17:49:37.157Z,19.89
2022-08-17T17:52:18.432Z,20.08
2022-08-17T17:55:06.793Z,20.27
2022-08-17T17:57:55.981Z,20.16
2022-08-17T18:00:27.121Z,20.17
2022-08-17T18:03:07.794Z,20.21
2022-08-17T18:05:55.235Z,20.08
2022-08-17T18:08:37.560Z,20.07
2022-08-17T18:11:24.503Z,20.02
2022-08-17T18:14:14.502Z,20.00
2022-08-17T18:16:43.313Z,19.88
2022-08-17T18:19:14.287Z,19.72
2022-08-17T18:21:44.778Z,19.55
2022-08-17T18:24:14.032Z,19.63
2022-08-17T18:26:48.264Z,19.52
2022-08-17T18:29:31.339Z,19.68
2022-08-17T18:32:26.161Z,19.66
2022-08-17T18:34:57.474Z,19.77
2022-08-17T18:37:45.162Z,19.69
2022-08-17T18:40:40.402Z,19.63
2022-08-17T18:43:13.398Z,19.55
2022-08-17T18:45:48.971Z,19.46
2022-08-17T18:48:27.698Z,19.39
2022-08-17T18:50:59.109Z,19.19
2022-08-17T18:53:34.538Z,19.04
2022-08-17T18:56:28.277Z,19.03
2022-08-17T18:59:18.412Z,18.99
2022-08-17T19:02:15.337Z,18.85
2022-08-17T19:05:00.351Z,18.76
2022-08-17T19:07:31.892Z,18.62
2022-08-17T19:10:08.044Z,18.64
2022-08-17T19:12:42.098Z,18.51
2022-08-17T19:15:12.652Z,18.33
2022-08-17T19:17:49.245Z,18.30
2022-08-17T19:20:21.031Z,18.26
2022-08-17T19:23:05.024Z,18.20
2022-08-17T19:25:37.221Z,18.20
2022-08-17T19:28:21.853Z,18.11
2022-08-17T19:30:56.100Z,18.01
2022-08-17T19:33:26.140Z,17.89
2022-08-17T19:36:04.302Z,18.19
2022-08-17T19:38:43.365Z,18.32
2022-08-17T19:41:22.960Z,18.42
2022-08-17T19:44:17.972Z,18.29
2022-08-17T19:46:56.073Z,18.17
2022-08-17T19:49:40.950Z,18.09
2022-08-17T19:52:33.414Z,17.97
2022-08-17T19:55:19.804Z,17.93
2022-08-17T19:58:02.240Z,17.87
2022-08-17T20:00:33.049Z,17.79
2022-08-17T20:03:06.621Z,17.80
2022-08-17T20:06:08.689Z,17.71
2022-08-17T20:08:31.636Z,17.82
2022-08-17T20:11:09.041Z,18.01
2022-08-17T20:13:42.023Z,17.97
2022-08-17T20:16:12.118Z,17.99
2022-08-17T20:18:49.907Z,18.08
2022-08-17T20:21:26.114Z,18.03
2022-08-17T20:24:01.048Z,17.88
2022-08-17T20:26:38.502Z,17.79
2022-08-17T20:29:29.527Z,17.43
2022-08-17T20:32:24.355Z,17.42
2022-08-17T20:35:21.378Z,17.42
2022-08-17T20:37:57.437Z,17.57
2022-08-17T20:40:30.934Z,17.75
2022-08-17T20:43:00.074Z,17.55
2022-08-17T20:45:54.365Z,17.54
2022-08-17T20:48:37.869Z,17.54
2022-08-17T20:51:24.199Z,17.51
2022-08-17T20:54:30.852Z,17.57
2022-08-17T20:57:01.355Z,17.49
2022-08-17T20:59:57.352Z,17.47
2022-08-17T21:02:27.093Z,17.47
2022-08-17T21:05:40.442Z,17.34
2022-08-17T21:08:16.670Z,17.28
2022-08-17T21:10:48.347Z,17.33
2022-08-17T21:13:57.930Z,17.43
2022-08-17T21:16:36.582Z,17.33
2022-08-17T21:19:19.602Z,17.27
2022-08-17T21:21:59.258Z,17.15
2022-08-17T21:24:38.844Z,17.22
2022-08-17T21:27:21.864Z,17.02
2022-08-17T21:30:12.330Z,16.90
2022-08-17T21:32:43.419Z,17.07
2022-08-17T21:35:31.106Z,17.12
2022-08-17T21:38:05.238Z,17.31
2022-08-17T21:40:34.983Z,17.12
2022-08-17T21:43:23.704Z,17.20
2022-08-17T21:46:08.346Z,17.28
2022-08-17T21:48:48.204Z,17.17
2022-08-17T21:51:21.484Z,17.18
2022-08-17T21:53:53.173Z,17.22
2022-08-17T21:56:25.335Z,17.17
2022-08-17T21:59:00.586Z,17.19
2022-08-17T22:01:31.558Z,17.22
2022-08-17T22:04:04.066Z,17.33
2022-08-17T22:06:36.329Z,17.34
2022-08-17T22:09:11.907Z,17.32
2022-08-17T22:11:57.124Z,17.23
2022-08-17T22:14:51.821Z,17.08
2022-08-17T22:17:20.073Z,17.10
2022-08-17T22:19:51.909Z,17.10
2022-08-17T22:22:31.292Z,17.11
2022-08-17T22:25:03.190Z,16.97
2022-08-17T22:28:01.468Z,16.89
2022-08-17T22:30:40.093Z,16.84
2022-08-17T22:33:37.850Z,16.90
2022-08-17T22:36:24.701Z,17.02
2022-08-17T22:38:55.130Z,17.03
2022-08-17T22:41:35.136Z,17.14
2022-08-17T22:44:10.913Z,16.91
2022-08-17T22:46:49.539Z,16.87
2022-08-17T22:49:26.813Z,17.01
2022-08-17T22:52:20.119Z,17.13
2022-08-17T22:55:09.357Z,17.16
2022-08-17T22:57:51.944Z,17.17
2022-08-17T23:00:42.108Z,17.13
2022-08-17T23:03:19.734Z,17.12
2022-08-17T23:05:52.623Z,17.06
2022-08-17T23:08:21.874Z,17.06
2022-08-17T23:10:50.945Z,17.14
2022-08-17T23:13:18.947Z,17.11
2022-08-17T23:15:48.208Z,17.04
2022-08-17T23:18:17.905Z,16.99
2022-08-17T23:20:47.163Z,17.04
2022-08-17T23:23:18.733Z,17.01
2022-08-17T23:25:49.740Z,17.04
2022-08-17T23:28:17.766Z,17.03
2022-08-17T23:30:48.582Z,17.02
2022-08-17T23:33:22.093Z,17.06
2022-08-17T23:35:50.573Z,17.04
2022-08-17T23:38:18.805Z,17.10
2022-08-17T23:40:46.847Z,17.09
2022-08-17T23:43:23.521Z,17.07
2022-08-17T23:45:55.107Z,16.93
2022-08-17T23:48:35.032Z,16.99
2022-08-17T23:51:08.845Z,16.96
2022-08-17T23:53:38.742Z,16.95
2022-08-17T23:56:11.344Z,16.98
2022-08-17T23:58:42.206Z,16.99
